createdAt,value
2019-02-16T00:00:01.640Z,48.46
2019-02-16T00:02:33.164Z,49.05
2019-02-16T00:05:04.813Z,48.95
2019-02-16T00:07:36.721Z,49.31
2019-02-16T00:10:07.905Z,49.31
2019-02-16T00:12:39.490Z,49.83
2019-02-16T00:15:10.959Z,50.41
2019-02-16T00:17:42.503Z,49.94
2019-02-16T00:20:13.858Z,49.74
2019-02-16T00:22:45.478Z,49.51
2019-02-16T00:25:17.052Z,49.68
2019-02-16T00:27:48.094Z,49.88
2019-02-16T00:30:19.333Z,50.02
2019-02-16T00:32:50.589Z,49.81
2019-02-16T00:35:21.860Z,49.65
2019-02-16T00:37:52.896Z,49.50
2019-02-16T00:40:25.434Z,49.66
2019-02-16T00:42:57.431Z,49.56
2019-02-16T00:45:28.746Z,49.63
2019-02-16T00:48:00.263Z,49.97
2019-02-16T00:50:31.240Z,49.81
2019-02-16T00:53:02.492Z,49.54
2019-02-16T00:55:33.804Z,49.59
2019-02-16T00:58:04.895Z,49.81
2019-02-16T01:00:37.298Z,49.93
2019-02-16T01:03:09.001Z,50.11
2019-02-16T01:05:40.000Z,50.29
2019-02-16T01:08:11.286Z,50.51
2019-02-16T01:10:42.571Z,50.35
2019-02-16T01:13:13.530Z,50.34
2019-02-16T01:15:44.536Z,50.53
2019-02-16T01:18:15.584Z,50.24
2019-02-16T01:20:46.882Z,50.20
2019-02-16T01:23:17.925Z,50.15
2019-02-16T01:25:48.897Z,50.38
2019-02-16T01:28:19.851Z,50.45
2019-02-16T01:30:51.080Z,50.17
2019-02-16T01:33:22.055Z,49.97
2019-02-16T01:35:53.039Z,49.87
2019-02-16T01:38:24.262Z,50.15
2019-02-16T01:40:55.504Z,50.49
2019-02-16T01:43:26.469Z,50.80
2019-02-16T01:45:57.711Z,50.86
2019-02-16T01:48:28.975Z,50.93
2019-02-16T01:51:00.028Z,51.07
2019-02-16T01:53:31.280Z,51.36
2019-02-16T01:56:02.254Z,51.59
2019-02-16T01:58:33.754Z,51.78
2019-02-16T02:01:05.372Z,51.84
2019-02-16T02:03:37.208Z,51.53
2019-02-16T02:06:08.249Z,51.54
2019-02-16T02:08:39.272Z,51.53
2019-02-16T02:11:10.559Z,51.31
2019-02-16T02:13:41.532Z,51.73
2019-02-16T02:16:12.608Z,51.58
2019-02-16T02:18:43.606Z,51.43
2019-02-16T02:21:15.423Z,51.47
2019-02-16T02:23:46.828Z,51.62
2019-02-16T02:26:17.803Z,51.60
2019-02-16T02:28:55.682Z,51.76
2019-02-16T02:31:26.978Z,51.65
2019-02-16T02:33:58.079Z,51.93
2019-02-16T02:36:29.325Z,52.23
2019-02-16T02:39:00.291Z,51.92
2019-02-16T02:41:32.362Z,51.65
2019-02-16T02:44:03.418Z,51.69
2019-02-16T02:46:34.396Z,51.69
2019-02-16T02:49:05.370Z,51.45
2019-02-16T02:51:37.359Z,51.47
2019-02-16T02:54:08.609Z,51.21
2019-02-16T02:56:39.610Z,50.98
2019-02-16T02:59:10.650Z,51.46
2019-02-16T03:01:41.705Z,51.32
2019-02-16T03:04:12.723Z,51.64
2019-02-16T03:06:43.889Z,51.67
2019-02-16T03:09:15.509Z,52.06
2019-02-16T03:11:46.792Z,51.71
2019-02-16T03:14:17.831Z,51.78
2019-02-16T03:16:48.857Z,52.11
2019-02-16T03:19:19.841Z,51.95
2019-02-16T03:25:15.638Z,52.69
2019-02-16T03:28:33.067Z,52.90
2019-02-16T03:32:05.194Z,52.67
2019-02-16T03:34:55.567Z,52.68
2019-02-16T03:38:22.241Z,53.84
2019-02-16T03:40:53.508Z,53.54
2019-02-16T03:43:26.201Z,53.43
2019-02-16T03:45:57.167Z,53.00
2019-02-16T03:48:28.238Z,52.68
2019-02-16T03:50:59.451Z,52.93
2019-02-16T03:53:30.424Z,52.75
2019-02-16T03:56:01.400Z,52.56
2019-02-16T03:58:32.373Z,52.96
2019-02-16T04:01:03.330Z,53.21
2019-02-16T04:03:34.378Z,53.16
2019-02-16T04:06:05.597Z,53.56
2019-02-16T04:08:36.937Z,53.30
2019-02-16T04:11:08.011Z,53.34
2019-02-16T04:13:39.234Z,53.21
2019-02-16T04:16:10.267Z,53.25
2019-02-16T04:18:42.321Z,53.44
2019-02-16T04:21:13.421Z,53.75
2019-02-16T04:23:44.427Z,53.34
2019-02-16T04:26:16.374Z,53.55
2019-02-16T04:28:47.397Z,53.51
2019-02-16T04:31:18.339Z,53.77
2019-02-16T04:33:49.600Z,53.60
2019-02-16T04:36:20.585Z,53.39
2019-02-16T04:38:51.643Z,53.29
2019-02-16T04:41:22.936Z,53.57
2019-02-16T04:43:53.926Z,53.72
2019-02-16T04:46:25.230Z,54.10
2019-02-16T04:48:56.185Z,53.97
2019-02-16T04:51:28.464Z,53.89
2019-02-16T04:53:59.423Z,54.00
2019-02-16T04:56:30.710Z,53.98
2019-02-16T04:59:01.743Z,54.25
2019-02-16T05:01:32.750Z,54.04
2019-02-16T05:04:03.713Z,54.11
2019-02-16T05:06:34.820Z,54.38
2019-02-16T05:09:07.076Z,54.30
2019-02-16T05:11:38.078Z,54.25
2019-02-16T05:14:09.085Z,54.61
2019-02-16T05:16:40.097Z,53.97
2019-02-16T05:19:11.102Z,53.76
2019-02-16T05:21:42.109Z,54.05
2019-02-16T05:24:14.118Z,53.94
2019-02-16T05:26:45.098Z,53.80
2019-02-16T05:29:17.314Z,54.04
2019-02-16T05:31:48.302Z,53.97
2019-02-16T05:34:19.317Z,54.13
2019-02-16T05:36:50.307Z,54.12
2019-02-16T05:39:21.782Z,53.95
2019-02-16T05:41:52.772Z,53.48
2019-02-16T05:44:24.101Z,53.58
2019-02-16T05:46:55.137Z,53.54
2019-02-16T05:49:26.156Z,53.52
2019-02-16T05:51:57.237Z,53.71
2019-02-16T05:54:29.511Z,53.39
2019-02-16T05:57:00.568Z,53.47
2019-02-16T05:59:32.777Z,53.59
2019-02-16T06:02:04.846Z,53.23
2019-02-16T06:04:35.865Z,53.98
2019-02-16T06:07:06.886Z,54.10
2019-02-16T06:09:37.861Z,54.01
2019-02-16T06:12:08.839Z,53.95
2019-02-16T06:14:39.800Z,53.99
2019-02-16T06:17:11.022Z,54.11
2019-02-16T06:19:42.208Z,53.96
2019-02-16T06:22:13.215Z,53.59
2019-02-16T06:24:44.189Z,53.78
2019-02-16T06:27:15.183Z,53.60
2019-02-16T06:29:47.744Z,53.91
2019-02-16T06:32:19.780Z,54.13
2019-02-16T06:34:54.478Z,53.93
2019-02-16T06:37:26.135Z,53.96
2019-02-16T06:39:57.413Z,53.53
2019-02-16T06:42:28.916Z,53.35
2019-02-16T06:44:59.905Z,53.72
2019-02-16T06:47:31.256Z,54.00
2019-02-16T06:50:02.237Z,54.24
2019-02-16T06:52:35.027Z,53.74
2019-02-16T06:55:06.198Z,53.60
2019-02-16T06:57:37.261Z,53.42
2019-02-16T07:00:10.117Z,52.89
2019-02-16T07:02:41.956Z,52.62
2019-02-16T07:05:13.265Z,52.52
2019-02-16T07:07:44.594Z,52.50
2019-02-16T07:10:16.252Z,52.25
2019-02-16T07:12:47.746Z,52.02
2019-02-16T07:15:18.786Z,52.13
2019-02-16T07:18:22.624Z,51.90
2019-02-16T07:21:00.447Z,51.82
2019-02-16T07:23:35.117Z,52.14
2019-02-16T07:26:06.795Z,52.18
2019-02-16T07:28:37.827Z,51.82
2019-02-16T07:31:08.808Z,51.61
2019-02-16T07:33:40.039Z,51.52
2019-02-16T07:36:11.655Z,51.32
2019-02-16T07:38:43.003Z,51.08
2019-02-16T07:41:14.065Z,51.15
2019-02-16T07:44:15.210Z,50.73
2019-02-16T07:46:51.812Z,50.60
2019-02-16T07:49:35.056Z,50.34
2019-02-16T07:52:29.928Z,49.57
2019-02-16T07:55:22.688Z,49.94
2019-02-16T07:58:16.595Z,49.80
2019-02-16T08:01:09.486Z,49.22
2019-02-16T08:03:49.122Z,49.26
2019-02-16T08:06:48.341Z,48.39
2019-02-16T08:09:33.968Z,48.22
2019-02-16T08:12:23.071Z,48.49
2019-02-16T08:14:59.906Z,48.31
2019-02-16T08:17:46.044Z,48.02
2019-02-16T08:20:42.389Z,47.53
2019-02-16T08:23:19.481Z,47.46
2019-02-16T08:25:58.197Z,47.41
2019-02-16T08:28:41.848Z,46.91
2019-02-16T08:31:18.741Z,46.39
2019-02-16T08:34:04.694Z,45.96
2019-02-16T08:36:53.378Z,45.52
2019-02-16T08:39:43.273Z,45.43
2019-02-16T08:42:40.588Z,45.22
2019-02-16T08:45:18.844Z,44.74
2019-02-16T08:48:14.989Z,44.70
2019-02-16T08:50:57.569Z,45.08
2019-02-16T08:53:35.744Z,44.21
2019-02-16T08:56:41.189Z,43.86
2019-02-16T08:59:34.557Z,43.68
2019-02-16T09:02:21.269Z,44.00
2019-02-16T09:05:11.514Z,43.26
2019-02-16T09:07:57.906Z,43.54
2019-02-16T09:10:46.893Z,42.94
2019-02-16T09:13:46.439Z,42.67
2019-02-16T09:19:38.143Z,43.32
2019-02-16T09:22:19.957Z,42.99
2019-02-16T09:24:59.879Z,43.13
2019-02-16T09:27:49.769Z,42.54
2019-02-16T09:30:38.681Z,42.72
2019-02-16T09:33:19.778Z,42.39
2019-02-16T09:35:59.674Z,42.51
2019-02-16T09:38:49.625Z,42.71
2019-02-16T09:41:49.766Z,42.63
2019-02-16T09:44:35.520Z,42.83
2019-02-16T09:47:29.348Z,42.00
2019-02-16T09:50:22.419Z,41.82
2019-02-16T09:53:02.779Z,41.52
2019-02-16T09:55:53.011Z,40.99
2019-02-16T09:58:42.546Z,40.84
2019-02-16T10:01:31.899Z,41.14
2019-02-16T10:04:25.304Z,41.02
2019-02-16T10:07:14.654Z,41.16
2019-02-16T10:09:57.792Z,41.47
2019-02-16T10:13:06.089Z,40.87
2019-02-16T10:15:59.233Z,41.13
2019-02-16T10:18:43.771Z,40.19
2019-02-16T10:21:35.414Z,39.85
2019-02-16T10:24:28.645Z,41.25
2019-02-16T10:27:10.137Z,41.13
2019-02-16T10:30:03.260Z,40.84
2019-02-16T10:32:51.919Z,40.34
2019-02-16T10:35:41.159Z,39.77
2019-02-16T10:38:43.534Z,39.78
2019-02-16T10:41:21.712Z,39.63
2019-02-16T10:44:15.008Z,39.49
2019-02-16T10:46:52.142Z,39.48
2019-02-16T10:49:41.300Z,39.37
2019-02-16T10:52:23.048Z,39.17
2019-02-16T10:55:13.236Z,38.87
2019-02-16T10:58:06.107Z,39.56
2019-02-16T11:00:56.693Z,39.24
2019-02-16T11:03:34.918Z,38.20
2019-02-16T11:06:13.649Z,38.14
2019-02-16T11:08:54.223Z,38.01
2019-02-16T11:11:50.031Z,37.66
2019-02-16T11:14:28.325Z,37.51
2019-02-16T11:17:16.201Z,37.30
2019-02-16T11:19:55.714Z,37.38
2019-02-16T11:22:41.319Z,37.17
2019-02-16T11:25:40.173Z,36.40
2019-02-16T11:28:27.124Z,36.25
2019-02-16T11:31:15.634Z,35.94
2019-02-16T11:34:00.457Z,35.40
2019-02-16T11:36:39.681Z,35.13
2019-02-16T11:39:35.828Z,34.87
2019-02-16T11:42:21.998Z,34.58
2019-02-16T11:45:15.191Z,34.09
2019-02-16T11:47:58.462Z,33.93
2019-02-16T11:50:40.919Z,34.22
2019-02-16T11:53:22.036Z,34.16
2019-02-16T11:56:02.648Z,34.38
2019-02-16T11:58:50.879Z,32.74
2019-02-16T12:01:46.878Z,33.09
2019-02-16T12:04:35.638Z,32.98
2019-02-16T12:07:13.979Z,32.81
2019-02-16T12:10:01.265Z,33.86
2019-02-16T12:12:43.572Z,33.46
2019-02-16T12:15:32.094Z,32.00
2019-02-16T12:18:31.526Z,30.80
2019-02-16T12:21:17.423Z,32.21
2019-02-16T12:24:07.613Z,31.50
2019-02-16T12:27:07.020Z,31.91
2019-02-16T12:29:43.417Z,29.49
2019-02-16T12:32:36.928Z,30.01
2019-02-16T12:35:40.149Z,30.34
2019-02-16T12:38:17.700Z,31.34
2019-02-16T12:41:01.244Z,31.87
2019-02-16T12:43:43.754Z,31.72
2019-02-16T12:46:32.568Z,31.86
2019-02-16T12:49:24.117Z,32.04
2019-02-16T12:52:13.266Z,32.17
2019-02-16T12:54:58.641Z,32.22
2019-02-16T12:57:36.996Z,32.13
2019-02-16T13:00:22.336Z,31.86
2019-02-16T13:03:11.162Z,31.34
2019-02-16T13:06:07.598Z,31.22
2019-02-16T13:09:13.359Z,31.30
2019-02-16T13:12:13.477Z,31.39
2019-02-16T13:15:03.005Z,31.64
2019-02-16T13:18:00.520Z,31.38
2019-02-16T13:20:49.379Z,31.27
2019-02-16T13:23:31.163Z,31.41
2019-02-16T13:26:14.015Z,31.84
2019-02-16T13:29:07.207Z,31.98
2019-02-16T13:32:00.249Z,31.88
2019-02-16T13:34:47.827Z,30.96
2019-02-16T13:37:27.510Z,31.13
2019-02-16T13:40:19.201Z,31.00
2019-02-16T13:42:55.914Z,31.39
2019-02-16T13:45:51.919Z,31.32
2019-02-16T13:48:27.668Z,31.61
2019-02-16T13:51:07.677Z,31.25
2019-02-16T13:53:52.944Z,32.95
2019-02-16T13:56:43.474Z,33.38
2019-02-16T13:59:21.506Z,33.24
2019-02-16T14:02:02.469Z,34.19
2019-02-16T14:04:50.457Z,34.64
2019-02-16T14:07:29.774Z,34.67
2019-02-16T14:10:17.085Z,34.74
2019-02-16T14:12:55.105Z,33.95
2019-02-16T14:15:37.873Z,34.08
2019-02-16T14:18:09.117Z,34.01
2019-02-16T14:20:40.326Z,34.32
2019-02-16T14:23:11.307Z,34.21
2019-02-16T14:25:45.833Z,34.56
2019-02-16T14:28:17.001Z,34.93
2019-02-16T14:30:48.627Z,34.95
2019-02-16T14:33:19.974Z,35.29
2019-02-16T14:35:51.043Z,35.58
2019-02-16T14:38:53.928Z,36.45
2019-02-16T14:41:24.897Z,36.37
2019-02-16T14:43:56.169Z,36.33
2019-02-16T14:46:27.746Z,35.89
2019-02-16T14:48:59.558Z,35.85
2019-02-16T14:51:31.208Z,35.91
2019-02-16T14:54:03.213Z,35.30
2019-02-16T14:56:34.566Z,35.37
2019-02-16T14:59:07.456Z,35.60
2019-02-16T15:01:39.887Z,35.37
2019-02-16T15:04:14.366Z,34.99
2019-02-16T15:06:45.320Z,35.06
2019-02-16T15:09:17.825Z,35.11
2019-02-16T15:11:49.112Z,35.14
2019-02-16T15:14:20.355Z,35.28
2019-02-16T15:16:51.803Z,35.88
2019-02-16T15:19:27.312Z,35.53
2019-02-16T15:21:58.298Z,35.58
2019-02-16T15:24:29.746Z,35.75
2019-02-16T15:27:00.713Z,35.99
2019-02-16T15:29:31.781Z,36.26
2019-02-16T15:32:03.068Z,36.17
2019-02-16T15:34:34.173Z,35.88
2019-02-16T15:37:05.133Z,35.86
2019-02-16T15:39:36.134Z,35.98
2019-02-16T15:42:07.626Z,36.08
2019-02-16T15:44:38.634Z,36.15
2019-02-16T15:47:09.858Z,36.25
2019-02-16T15:49:41.213Z,36.55
2019-02-16T15:52:12.285Z,36.30
2019-02-16T15:54:43.850Z,36.23
2019-02-16T15:57:14.819Z,35.02
2019-02-16T15:59:46.392Z,34.64
2019-02-16T16:02:17.336Z,34.35
2019-02-16T16:04:48.329Z,34.50
2019-02-16T16:07:19.526Z,34.81
2019-02-16T16:10:04.894Z,35.36
2019-02-16T16:13:01.514Z,35.71
2019-02-16T16:15:42.522Z,36.20
2019-02-16T16:18:24.266Z,36.44
2019-02-16T16:21:23.076Z,36.58
2019-02-16T16:24:22.890Z,37.11
2019-02-16T16:27:11.810Z,36.99
2019-02-16T16:30:01.769Z,37.21
2019-02-16T16:32:51.054Z,37.48
2019-02-16T16:35:40.553Z,37.63
2019-02-16T16:38:33.948Z,37.52
2019-02-16T16:41:22.922Z,37.15
2019-02-16T16:44:16.157Z,36.97
2019-02-16T16:47:05.040Z,36.82
2019-02-16T16:49:55.311Z,36.89
2019-02-16T16:52:44.709Z,36.96
2019-02-16T16:55:26.668Z,36.94
2019-02-16T16:58:15.733Z,37.23
2019-02-16T17:01:07.776Z,37.08
2019-02-16T17:03:58.041Z,37.00
2019-02-16T17:06:46.899Z,37.18
2019-02-16T17:09:36.487Z,37.19
2019-02-16T17:12:23.460Z,37.21
2019-02-16T17:15:15.051Z,36.92
2019-02-16T17:18:01.048Z,37.21
2019-02-16T17:23:18.048Z,37.54
2019-02-16T17:25:58.936Z,38.15
2019-02-16T17:28:52.275Z,38.36
2019-02-16T17:31:45.825Z,38.68
2019-02-16T17:34:38.438Z,39.13
2019-02-16T17:37:31.199Z,39.66
2019-02-16T17:40:13.008Z,39.72
2019-02-16T17:42:54.970Z,40.03
2019-02-16T17:45:45.465Z,40.45
2019-02-16T17:48:47.934Z,40.52
2019-02-16T17:51:37.719Z,41.06
2019-02-16T17:54:40.387Z,41.34
2019-02-16T17:57:18.962Z,41.69
2019-02-16T18:00:08.887Z,42.17
2019-02-16T18:03:02.958Z,43.24
2019-02-16T18:06:11.541Z,44.06
2019-02-16T18:09:00.986Z,43.92
2019-02-16T18:11:42.974Z,43.98
2019-02-16T18:14:21.466Z,43.79
2019-02-16T18:17:14.402Z,43.61
2019-02-16T18:19:57.063Z,43.54
2019-02-16T18:22:50.098Z,43.83
2019-02-16T18:25:27.329Z,43.65
2019-02-16T18:28:08.118Z,43.66
2019-02-16T18:30:57.793Z,44.19
2019-02-16T18:33:37.780Z,44.40
2019-02-16T18:36:14.387Z,44.19
2019-02-16T18:39:05.819Z,44.20
2019-02-16T18:41:54.273Z,44.32
2019-02-16T18:44:48.145Z,44.51
2019-02-16T18:47:50.288Z,43.98
2019-02-16T18:50:43.265Z,44.17
2019-02-16T18:53:35.332Z,43.98
2019-02-16T18:56:13.561Z,43.89
2019-02-16T18:59:04.233Z,44.09
2019-02-16T19:01:54.654Z,43.89
2019-02-16T19:04:33.222Z,43.99
2019-02-16T19:07:22.225Z,44.45
2019-02-16T19:10:17.866Z,44.33
2019-02-16T19:13:14.282Z,44.67
2019-02-16T19:15:55.802Z,44.75
2019-02-16T19:18:33.419Z,44.86
2019-02-16T19:21:22.605Z,44.97
2019-02-16T19:24:03.876Z,44.65
2019-02-16T19:26:57.310Z,44.95
2019-02-16T19:29:50.203Z,44.93
2019-02-16T19:32:40.297Z,44.96
2019-02-16T19:35:21.044Z,45.84
2019-02-16T19:38:04.473Z,46.02
2019-02-16T19:40:52.382Z,46.14
2019-02-16T19:43:32.303Z,46.16
2019-02-16T19:46:25.715Z,45.93
2019-02-16T19:49:21.484Z,46.21
2019-02-16T19:52:00.645Z,46.43
2019-02-16T19:54:44.269Z,46.86
2019-02-16T19:57:33.599Z,46.86
2019-02-16T20:00:20.172Z,46.58
2019-02-16T20:03:03.607Z,47.02
2019-02-16T20:05:49.444Z,47.43
2019-02-16T20:08:48.949Z,47.54
2019-02-16T20:11:38.246Z,47.47
2019-02-16T20:14:26.190Z,47.66
2019-02-16T20:17:12.313Z,48.14
2019-02-16T20:20:10.358Z,48.20
2019-02-16T20:22:59.046Z,48.08
2019-02-16T20:25:44.754Z,48.19
2019-02-16T20:28:47.026Z,48.59
2019-02-16T20:31:25.050Z,49.14
2019-02-16T20:34:02.640Z,49.49
2019-02-16T20:36:42.390Z,49.03
2019-02-16T20:39:41.959Z,49.43
2019-02-16T20:42:32.156Z,49.19
2019-02-16T20:45:16.104Z,48.83
2019-02-16T20:47:58.593Z,48.82
2019-02-16T20:50:38.967Z,49.12
2019-02-16T20:53:38.429Z,48.75
2019-02-16T20:56:26.820Z,48.49
2019-02-16T20:59:23.943Z,49.53
2019-02-16T21:02:03.222Z,49.27
2019-02-16T21:04:57.018Z,49.52
2019-02-16T21:08:06.255Z,49.24
2019-02-16T21:11:05.630Z,49.12
2019-02-16T21:13:43.388Z,49.31
2019-02-16T21:16:39.559Z,49.09
2019-02-16T21:19:27.036Z,49.21
2019-02-16T21:22:08.765Z,49.44
2019-02-16T21:24:54.853Z,49.30
2019-02-16T21:27:34.423Z,49.60
2019-02-16T21:30:30.633Z,49.46
2019-02-16T21:33:11.562Z,49.75
2019-02-16T21:36:04.664Z,49.48
2019-02-16T21:39:02.703Z,49.48
2019-02-16T21:41:49.013Z,49.77
2019-02-16T21:44:24.924Z,50.22
2019-02-16T21:47:13.469Z,50.02
2019-02-16T21:50:04.429Z,50.23
2019-02-16T21:52:45.549Z,50.08
2019-02-16T21:55:23.164Z,50.13
2019-02-16T21:58:18.443Z,50.37
2019-02-16T22:01:20.772Z,49.94
2019-02-16T22:03:58.802Z,50.28
2019-02-16T22:06:41.408Z,50.09
2019-02-16T22:09:21.969Z,49.96
2019-02-16T22:12:11.912Z,50.40
2019-02-16T22:14:43.903Z,50.10
2019-02-16T22:17:15.177Z,50.36
2019-02-16T22:19:46.843Z,50.44
2019-02-16T22:22:18.236Z,50.33
2019-02-16T22:24:49.667Z,50.01
2019-02-16T22:27:20.735Z,50.30
2019-02-16T22:29:53.060Z,50.23
2019-02-16T22:32:24.353Z,50.35
2019-02-16T22:34:55.377Z,50.66
2019-02-16T22:37:26.516Z,50.82
2019-02-16T22:39:57.645Z,50.83
2019-02-16T22:42:28.900Z,50.68
2019-02-16T22:45:00.337Z,50.56
2019-02-16T22:47:31.366Z,50.71
2019-02-16T22:50:02.738Z,50.68
2019-02-16T22:52:33.798Z,50.80
2019-02-16T22:55:05.147Z,50.83
2019-02-16T22:57:36.130Z,50.61
2019-02-16T23:00:13.549Z,50.96
2019-02-16T23:02:46.340Z,50.98
2019-02-16T23:05:17.304Z,50.60
2019-02-16T23:07:48.720Z,50.79
2019-02-16T23:10:20.479Z,50.92
2019-02-16T23:12:52.043Z,50.97
2019-02-16T23:15:23.131Z,50.60
2019-02-16T23:17:54.147Z,50.51
2019-02-16T23:20:26.818Z,50.29
2019-02-16T23:22:57.792Z,50.64
2019-02-16T23:25:29.011Z,50.52
2019-02-16T23:28:00.328Z,50.33
2019-02-16T23:30:31.427Z,50.11
2019-02-16T23:33:03.027Z,49.93
2019-02-16T23:35:34.273Z,50.06
2019-02-16T23:38:05.415Z,50.00
2019-02-16T23:40:36.660Z,50.54
2019-02-16T23:43:07.917Z,50.37
2019-02-16T23:45:39.168Z,50.45
2019-02-16T23:48:10.648Z,50.30
2019-02-16T23:50:41.611Z,50.01
2019-02-16T23:53:12.580Z,50.48
2019-02-16T23:55:43.848Z,50.15
2019-02-16T23:58:15.202Z,49.82
